Estación Meteorológica Peña el Pijo (Robertgarden) [ 02/03/23 03:09:09 CET ]

Fecha Hora Presion(HPa) Temp (°C) Humedad % Rocio (°C) Viento ( m/s) Direccion Lluvia 1Hora(mm) Lluvia 24H(mm) LLuvia Total(mm)
2012-Oct-11 01:01:13 1010.000 17.9 68 11.9         178.19
2012-Oct-11 02:01:13 1009.600 18.5 68 12.5         178.19
2012-Oct-11 03:03:21 1009.400 18.1 70 12.6         178.19
2012-Oct-11 04:01:13 1008.900 16.9 73 12.0         178.19
2012-Oct-11 05:01:13 1008.700 15.6 79 12.0         178.19
2012-Oct-11 06:01:14 1008.900 15.6 79 12.0         178.19
2012-Oct-11 07:01:13 1008.400 13.8 82 10.8         178.19
2012-Oct-11 08:01:17 1008.200 12.9 85 10.4         178.19
2012-Oct-11 09:01:12 1008.600 13.4 87 11.3         178.19
2012-Oct-11 10:01:13 1008.900 15.5 87 13.4         178.19
2012-Oct-11 11:01:15 1009.200 17.8 75 13.3         178.19
2012-Oct-11 12:01:17 1009.000 18.5 69 12.7         178.19
2012-Oct-11 13:01:16 1009.100 19.5 63 12.2         178.19
2012-Oct-11 14:01:16 1008.600 20.3 60 12.3         178.19
2012-Oct-11 15:01:14 1008.000 20.5 56 11.4         178.19
2012-Oct-11 16:01:12 1008.100 22.9 47 10.9         178.19
2012-Oct-11 17:01:17 1007.700 22.4 42 8.8 1.4 SSW     178.19
2012-Oct-11 18:01:13 1007.600 21.6 39 7.0         178.19
2012-Oct-11 19:01:14 1007.500 18.6 49 7.7         178.19
2012-Oct-11 20:01:16 1008.100 16.4 55 7.3         178.19
2012-Oct-11 21:01:16 1008.700 13.8 65 7.3         178.19
2012-Oct-11 22:01:15 1009.100 11.9 73 7.2         178.19
2012-Oct-11 23:01:16 1009.500 11.9 80 8.6         178.19

Temperatura Máxima:22°    Temperatura Mínima:11°
Presión Máxima:1010.000 Hpa    Presión Mínima:1007.500 Hpa


Volver